sensor_id;sensor_type;location;lat;lon;timestamp;P1;durP1;ratioP1;P2;durP2;ratioP2
75732;SDS011;73508;47.450;19.128;2024-03-06T00:01:38;39.83;;;17.90;;
75732;SDS011;73508;47.450;19.128;2024-03-06T00:04:04;37.97;;;17.55;;
75732;SDS011;73508;47.450;19.128;2024-03-06T00:06:29;36.17;;;15.97;;
75732;SDS011;73508;47.450;19.128;2024-03-06T00:08:55;37.97;;;17.20;;
75732;SDS011;73508;47.450;19.128;2024-03-06T00:11:20;33.03;;;15.93;;
75732;SDS011;73508;47.450;19.128;2024-03-06T00:13:46;36.17;;;16.20;;
75732;SDS011;73508;47.450;19.128;2024-03-06T00:16:12;34.53;;;16.55;;
75732;SDS011;73508;47.450;19.128;2024-03-06T00:18:38;35.00;;;16.20;;
75732;SDS011;73508;47.450;19.128;2024-03-06T00:21:03;36.17;;;16.47;;
75732;SDS011;73508;47.450;19.128;2024-03-06T00:23:29;32.97;;;15.77;;
75732;SDS011;73508;47.450;19.128;2024-03-06T00:25:55;33.95;;;16.08;;
75732;SDS011;73508;47.450;19.128;2024-03-06T00:28:21;34.83;;;16.23;;
75732;SDS011;73508;47.450;19.128;2024-03-06T00:30:46;30.93;;;14.97;;
75732;SDS011;73508;47.450;19.128;2024-03-06T00:33:12;35.90;;;16.27;;
75732;SDS011;73508;47.450;19.128;2024-03-06T00:35:37;34.33;;;15.53;;
75732;SDS011;73508;47.450;19.128;2024-03-06T00:38:02;33.53;;;16.00;;
75732;SDS011;73508;47.450;19.128;2024-03-06T00:40:28;34.80;;;15.43;;
75732;SDS011;73508;47.450;19.128;2024-03-06T00:42:57;33.92;;;15.57;;
75732;SDS011;73508;47.450;19.128;2024-03-06T00:45:22;36.83;;;16.67;;
75732;SDS011;73508;47.450;19.128;2024-03-06T00:47:48;32.45;;;16.52;;
75732;SDS011;73508;47.450;19.128;2024-03-06T00:50:13;31.80;;;15.93;;
75732;SDS011;73508;47.450;19.128;2024-03-06T00:52:41;37.17;;;16.05;;
75732;SDS011;73508;47.450;19.128;2024-03-06T00:55:07;29.50;;;14.97;;
75732;SDS011;73508;47.450;19.128;2024-03-06T00:57:33;31.60;;;14.90;;
75732;SDS011;73508;47.450;19.128;2024-03-06T00:59:58;33.43;;;15.87;;
75732;SDS011;73508;47.450;19.128;2024-03-06T01:02:24;40.00;;;16.43;;
75732;SDS011;73508;47.450;19.128;2024-03-06T01:04:49;33.43;;;15.00;;
75732;SDS011;73508;47.450;19.128;2024-03-06T01:07:14;27.70;;;14.37;;
75732;SDS011;73508;47.450;19.128;2024-03-06T01:09:40;36.27;;;15.63;;
75732;SDS011;73508;47.450;19.128;2024-03-06T01:12:05;31.13;;;15.20;;
75732;SDS011;73508;47.450;19.128;2024-03-06T01:14:30;34.37;;;15.53;;
75732;SDS011;73508;47.450;19.128;2024-03-06T01:16:56;33.93;;;15.37;;
75732;SDS011;73508;47.450;19.128;2024-03-06T01:19:21;33.97;;;15.27;;
75732;SDS011;73508;47.450;19.128;2024-03-06T01:21:47;36.27;;;16.50;;
75732;SDS011;73508;47.450;19.128;2024-03-06T01:24:13;32.05;;;15.40;;
75732;SDS011;73508;47.450;19.128;2024-03-06T01:26:39;31.97;;;14.90;;
75732;SDS011;73508;47.450;19.128;2024-03-06T01:29:05;32.22;;;15.77;;
75732;SDS011;73508;47.450;19.128;2024-03-06T01:31:31;32.30;;;14.83;;
75732;SDS011;73508;47.450;19.128;2024-03-06T01:33:56;34.57;;;15.40;;
75732;SDS011;73508;47.450;19.128;2024-03-06T01:36:21;32.67;;;14.90;;
75732;SDS011;73508;47.450;19.128;2024-03-06T01:38:47;32.47;;;15.20;;
75732;SDS011;73508;47.450;19.128;2024-03-06T01:41:14;32.72;;;15.48;;
75732;SDS011;73508;47.450;19.128;2024-03-06T01:43:39;34.45;;;15.15;;
75732;SDS011;73508;47.450;19.128;2024-03-06T01:46:05;34.73;;;15.47;;
75732;SDS011;73508;47.450;19.128;2024-03-06T01:48:31;33.93;;;15.93;;
75732;SDS011;73508;47.450;19.128;2024-03-06T01:50:57;34.97;;;16.33;;
75732;SDS011;73508;47.450;19.128;2024-03-06T01:53:24;34.45;;;15.38;;
75732;SDS011;73508;47.450;19.128;2024-03-06T01:55:49;33.07;;;15.27;;
75732;SDS011;73508;47.450;19.128;2024-03-06T01:58:15;34.10;;;15.73;;
75732;SDS011;73508;47.450;19.128;2024-03-06T02:05:49;35.60;;;15.02;;
75732;SDS011;73508;47.450;19.128;2024-03-06T02:08:15;30.45;;;15.02;;
75732;SDS011;73508;47.450;19.128;2024-03-06T02:10:41;38.43;;;15.73;;
75732;SDS011;73508;47.450;19.128;2024-03-06T02:13:06;32.40;;;15.10;;
75732;SDS011;73508;47.450;19.128;2024-03-06T02:15:32;35.25;;;15.57;;
75732;SDS011;73508;47.450;19.128;2024-03-06T02:17:58;35.03;;;16.17;;
75732;SDS011;73508;47.450;19.128;2024-03-06T02:20:23;34.60;;;15.60;;
75732;SDS011;73508;47.450;19.128;2024-03-06T02:22:49;39.58;;;15.75;;
75732;SDS011;73508;47.450;19.128;2024-03-06T02:25:15;38.13;;;16.63;;
75732;SDS011;73508;47.450;19.128;2024-03-06T02:27:40;37.13;;;15.57;;
75732;SDS011;73508;47.450;19.128;2024-03-06T02:30:06;37.83;;;16.13;;
75732;SDS011;73508;47.450;19.128;2024-03-06T02:32:31;33.05;;;15.10;;
75732;SDS011;73508;47.450;19.128;2024-03-06T02:34:57;32.77;;;14.87;;
75732;SDS011;73508;47.450;19.128;2024-03-06T02:37:22;33.83;;;15.87;;
75732;SDS011;73508;47.450;19.128;2024-03-06T02:39:49;32.00;;;15.45;;
75732;SDS011;73508;47.450;19.128;2024-03-06T02:42:14;35.87;;;14.40;;
75732;SDS011;73508;47.450;19.128;2024-03-06T02:44:40;37.37;;;14.97;;
75732;SDS011;73508;47.450;19.128;2024-03-06T02:47:05;37.30;;;15.30;;
75732;SDS011;73508;47.450;19.128;2024-03-06T02:49:30;35.77;;;15.77;;
75732;SDS011;73508;47.450;19.128;2024-03-06T02:51:56;36.33;;;15.17;;
75732;SDS011;73508;47.450;19.128;2024-03-06T02:54:22;36.50;;;16.23;;
75732;SDS011;73508;47.450;19.128;2024-03-06T02:56:50;34.55;;;14.73;;
75732;SDS011;73508;47.450;19.128;2024-03-06T02:59:17;36.05;;;15.57;;
75732;SDS011;73508;47.450;19.128;2024-03-06T03:01:42;36.43;;;15.40;;
75732;SDS011;73508;47.450;19.128;2024-03-06T03:04:10;35.67;;;14.97;;
75732;SDS011;73508;47.450;19.128;2024-03-06T03:06:36;36.25;;;16.20;;
75732;SDS011;73508;47.450;19.128;2024-03-06T03:09:01;34.50;;;14.70;;
75732;SDS011;73508;47.450;19.128;2024-03-06T03:11:28;35.90;;;15.83;;
75732;SDS011;73508;47.450;19.128;2024-03-06T03:13:54;35.88;;;15.98;;
75732;SDS011;73508;47.450;19.128;2024-03-06T03:16:19;36.50;;;14.77;;
75732;SDS011;73508;47.450;19.128;2024-03-06T03:18:45;31.30;;;15.40;;
75732;SDS011;73508;47.450;19.128;2024-03-06T03:21:10;33.90;;;15.43;;
75732;SDS011;73508;47.450;19.128;2024-03-06T03:23:37;37.92;;;16.20;;
75732;SDS011;73508;47.450;19.128;2024-03-06T03:26:02;35.10;;;15.30;;
75732;SDS011;73508;47.450;19.128;2024-03-06T03:28:29;29.33;;;14.07;;
75732;SDS011;73508;47.450;19.128;2024-03-06T03:30:54;36.83;;;15.57;;
75732;SDS011;73508;47.450;19.128;2024-03-06T03:33:20;37.78;;;15.90;;
75732;SDS011;73508;47.450;19.128;2024-03-06T03:35:45;35.87;;;16.80;;
75732;SDS011;73508;47.450;19.128;2024-03-06T03:38:10;38.33;;;16.50;;
75732;SDS011;73508;47.450;19.128;2024-03-06T03:40:35;38.97;;;16.37;;
75732;SDS011;73508;47.450;19.128;2024-03-06T03:43:01;38.10;;;15.23;;
75732;SDS011;73508;47.450;19.128;2024-03-06T03:45:31;37.15;;;16.77;;
75732;SDS011;73508;47.450;19.128;2024-03-06T03:48:01;37.90;;;16.40;;
75732;SDS011;73508;47.450;19.128;2024-03-06T03:50:27;38.72;;;16.42;;
75732;SDS011;73508;47.450;19.128;2024-03-06T03:52:53;36.17;;;15.33;;
75732;SDS011;73508;47.450;19.128;2024-03-06T03:55:18;39.77;;;16.17;;
75732;SDS011;73508;47.450;19.128;2024-03-06T03:57:44;30.98;;;14.23;;
75732;SDS011;73508;47.450;19.128;2024-03-06T04:00:09;35.20;;;14.97;;
75732;SDS011;73508;47.450;19.128;2024-03-06T04:02:36;35.35;;;14.65;;
75732;SDS011;73508;47.450;19.128;2024-03-06T04:05:02;32.63;;;15.38;;
75732;SDS011;73508;47.450;19.128;2024-03-06T04:07:27;32.00;;;14.90;;
75732;SDS011;73508;47.450;19.128;2024-03-06T04:09:53;35.43;;;15.80;;
75732;SDS011;73508;47.450;19.128;2024-03-06T04:12:18;39.77;;;16.77;;
75732;SDS011;73508;47.450;19.128;2024-03-06T04:14:44;37.77;;;16.27;;
75732;SDS011;73508;47.450;19.128;2024-03-06T04:17:10;37.03;;;15.97;;
75732;SDS011;73508;47.450;19.128;2024-03-06T04:19:35;37.83;;;16.10;;
75732;SDS011;73508;47.450;19.128;2024-03-06T04:22:01;34.63;;;15.73;;
75732;SDS011;73508;47.450;19.128;2024-03-06T04:24:27;34.03;;;15.53;;
75732;SDS011;73508;47.450;19.128;2024-03-06T04:26:52;33.30;;;15.97;;
75732;SDS011;73508;47.450;19.128;2024-03-06T04:29:18;32.93;;;15.87;;
75732;SDS011;73508;47.450;19.128;2024-03-06T04:31:43;38.07;;;15.40;;
75732;SDS011;73508;47.450;19.128;2024-03-06T04:34:08;34.10;;;14.83;;
75732;SDS011;73508;47.450;19.128;2024-03-06T04:36:34;37.87;;;15.70;;
75732;SDS011;73508;47.450;19.128;2024-03-06T04:38:59;32.10;;;14.37;;
75732;SDS011;73508;47.450;19.128;2024-03-06T04:41:24;40.47;;;16.27;;
75732;SDS011;73508;47.450;19.128;2024-03-06T04:43:50;37.57;;;16.20;;
75732;SDS011;73508;47.450;19.128;2024-03-06T04:46:17;35.63;;;15.50;;
75732;SDS011;73508;47.450;19.128;2024-03-06T04:48:42;40.80;;;17.07;;
75732;SDS011;73508;47.450;19.128;2024-03-06T04:51:08;37.13;;;16.48;;
75732;SDS011;73508;47.450;19.128;2024-03-06T04:53:34;37.80;;;16.20;;
75732;SDS011;73508;47.450;19.128;2024-03-06T04:56:00;36.38;;;15.82;;
75732;SDS011;73508;47.450;19.128;2024-03-06T04:58:25;40.97;;;16.63;;
75732;SDS011;73508;47.450;19.128;2024-03-06T05:00:51;35.30;;;16.40;;
75732;SDS011;73508;47.450;19.128;2024-03-06T05:03:16;36.90;;;16.23;;
75732;SDS011;73508;47.450;19.128;2024-03-06T05:05:41;46.60;;;17.30;;
75732;SDS011;73508;47.450;19.128;2024-03-06T05:08:07;37.73;;;17.27;;
75732;SDS011;73508;47.450;19.128;2024-03-06T05:10:32;41.13;;;15.83;;
75732;SDS011;73508;47.450;19.128;2024-03-06T05:12:58;37.73;;;15.97;;
75732;SDS011;73508;47.450;19.128;2024-03-06T05:15:23;36.97;;;16.43;;
75732;SDS011;73508;47.450;19.128;2024-03-06T05:17:48;34.77;;;16.07;;
75732;SDS011;73508;47.450;19.128;2024-03-06T05:20:14;48.50;;;16.77;;
75732;SDS011;73508;47.450;19.128;2024-03-06T05:22:39;38.27;;;15.53;;
75732;SDS011;73508;47.450;19.128;2024-03-06T05:25:05;47.73;;;17.77;;
75732;SDS011;73508;47.450;19.128;2024-03-06T05:27:30;43.90;;;16.70;;
75732;SDS011;73508;47.450;19.128;2024-03-06T05:29:57;39.83;;;16.57;;
75732;SDS011;73508;47.450;19.128;2024-03-06T05:32:22;41.25;;;15.80;;
75732;SDS011;73508;47.450;19.128;2024-03-06T05:34:47;43.37;;;16.27;;
75732;SDS011;73508;47.450;19.128;2024-03-06T05:37:13;40.80;;;17.40;;
75732;SDS011;73508;47.450;19.128;2024-03-06T05:39:38;40.77;;;17.03;;
75732;SDS011;73508;47.450;19.128;2024-03-06T05:42:04;39.13;;;16.13;;
75732;SDS011;73508;47.450;19.128;2024-03-06T05:44:30;42.20;;;18.05;;
75732;SDS011;73508;47.450;19.128;2024-03-06T05:46:57;43.58;;;17.12;;
75732;SDS011;73508;47.450;19.128;2024-03-06T05:49:23;44.17;;;17.90;;
75732;SDS011;73508;47.450;19.128;2024-03-06T05:51:48;47.78;;;18.00;;
75732;SDS011;73508;47.450;19.128;2024-03-06T05:54:14;49.17;;;18.97;;
75732;SDS011;73508;47.450;19.128;2024-03-06T05:56:39;52.97;;;19.00;;
75732;SDS011;73508;47.450;19.128;2024-03-06T05:59:07;48.08;;;17.55;;
75732;SDS011;73508;47.450;19.128;2024-03-06T06:01:33;45.35;;;18.73;;
75732;SDS011;73508;47.450;19.128;2024-03-06T06:03:59;50.92;;;18.98;;
75732;SDS011;73508;47.450;19.128;2024-03-06T06:06:25;48.30;;;19.77;;
75732;SDS011;73508;47.450;19.128;2024-03-06T06:08:51;46.10;;;18.17;;
75732;SDS011;73508;47.450;19.128;2024-03-06T06:11:16;50.77;;;19.67;;
75732;SDS011;73508;47.450;19.128;2024-03-06T06:13:42;43.17;;;18.47;;
75732;SDS011;73508;47.450;19.128;2024-03-06T06:16:07;47.27;;;19.77;;
75732;SDS011;73508;47.450;19.128;2024-03-06T06:18:32;42.87;;;18.23;;
75732;SDS011;73508;47.450;19.128;2024-03-06T06:20:58;51.03;;;19.93;;
75732;SDS011;73508;47.450;19.128;2024-03-06T06:23:24;44.88;;;19.20;;
75732;SDS011;73508;47.450;19.128;2024-03-06T06:25:49;43.63;;;20.40;;
75732;SDS011;73508;47.450;19.128;2024-03-06T06:28:14;42.97;;;18.03;;
75732;SDS011;73508;47.450;19.128;2024-03-06T06:30:40;45.07;;;19.27;;
75732;SDS011;73508;47.450;19.128;2024-03-06T06:33:05;51.00;;;20.05;;
75732;SDS011;73508;47.450;19.128;2024-03-06T06:35:31;46.23;;;19.53;;
75732;SDS011;73508;47.450;19.128;2024-03-06T06:37:56;45.57;;;19.87;;
75732;SDS011;73508;47.450;19.128;2024-03-06T06:40:21;41.77;;;17.40;;
75732;SDS011;73508;47.450;19.128;2024-03-06T06:42:48;44.90;;;18.73;;
75732;SDS011;73508;47.450;19.128;2024-03-06T06:45:15;40.33;;;18.02;;
75732;SDS011;73508;47.450;19.128;2024-03-06T06:47:41;41.20;;;18.10;;
75732;SDS011;73508;47.450;19.128;2024-03-06T06:50:06;45.97;;;19.20;;
75732;SDS011;73508;47.450;19.128;2024-03-06T06:52:34;41.50;;;18.70;;
75732;SDS011;73508;47.450;19.128;2024-03-06T06:55:08;39.83;;;18.85;;
75732;SDS011;73508;47.450;19.128;2024-03-06T06:57:37;40.03;;;18.20;;
75732;SDS011;73508;47.450;19.128;2024-03-06T07:00:03;40.00;;;18.37;;
75732;SDS011;73508;47.450;19.128;2024-03-06T07:02:38;38.00;;;17.60;;
75732;SDS011;73508;47.450;19.128;2024-03-06T07:05:07;35.97;;;18.02;;
75732;SDS011;73508;47.450;19.128;2024-03-06T07:07:33;38.80;;;18.30;;
75732;SDS011;73508;47.450;19.128;2024-03-06T07:09:58;36.87;;;18.23;;
75732;SDS011;73508;47.450;19.128;2024-03-06T07:12:24;35.60;;;17.57;;
75732;SDS011;73508;47.450;19.128;2024-03-06T07:14:49;37.23;;;17.80;;
75732;SDS011;73508;47.450;19.128;2024-03-06T07:17:15;39.83;;;18.03;;
75732;SDS011;73508;47.450;19.128;2024-03-06T07:19:40;40.10;;;17.53;;
75732;SDS011;73508;47.450;19.128;2024-03-06T07:22:05;34.00;;;17.10;;
75732;SDS011;73508;47.450;19.128;2024-03-06T07:24:31;38.17;;;17.50;;
75732;SDS011;73508;47.450;19.128;2024-03-06T07:26:56;39.37;;;18.00;;
75732;SDS011;73508;47.450;19.128;2024-03-06T07:29:22;31.50;;;16.73;;
75732;SDS011;73508;47.450;19.128;2024-03-06T07:31:47;32.53;;;16.93;;
75732;SDS011;73508;47.450;19.128;2024-03-06T07:34:13;33.30;;;15.93;;
75732;SDS011;73508;47.450;19.128;2024-03-06T07:36:39;32.83;;;16.92;;
75732;SDS011;73508;47.450;19.128;2024-03-06T07:39:04;30.63;;;15.07;;
75732;SDS011;73508;47.450;19.128;2024-03-06T07:41:30;33.15;;;15.85;;
75732;SDS011;73508;47.450;19.128;2024-03-06T07:43:57;30.07;;;15.50;;
75732;SDS011;73508;47.450;19.128;2024-03-06T07:46:23;31.25;;;15.05;;
75732;SDS011;73508;47.450;19.128;2024-03-06T07:48:48;31.07;;;14.43;;
75732;SDS011;73508;47.450;19.128;2024-03-06T07:51:15;30.42;;;14.85;;
75732;SDS011;73508;47.450;19.128;2024-03-06T07:53:40;29.37;;;13.73;;
75732;SDS011;73508;47.450;19.128;2024-03-06T07:56:05;24.17;;;13.87;;
75732;SDS011;73508;47.450;19.128;2024-03-06T07:58:31;26.93;;;13.60;;
75732;SDS011;73508;47.450;19.128;2024-03-06T08:00:56;30.03;;;14.60;;
75732;SDS011;73508;47.450;19.128;2024-03-06T08:03:22;29.27;;;14.43;;
75732;SDS011;73508;47.450;19.128;2024-03-06T08:05:52;27.00;;;13.15;;
75732;SDS011;73508;47.450;19.128;2024-03-06T08:08:18;25.53;;;13.27;;
75732;SDS011;73508;47.450;19.128;2024-03-06T08:10:43;26.57;;;12.87;;
75732;SDS011;73508;47.450;19.128;2024-03-06T08:13:10;25.73;;;13.00;;
75732;SDS011;73508;47.450;19.128;2024-03-06T08:15:35;28.77;;;13.20;;
75732;SDS011;73508;47.450;19.128;2024-03-06T08:18:00;22.30;;;12.50;;
75732;SDS011;73508;47.450;19.128;2024-03-06T08:20:26;24.87;;;13.13;;
75732;SDS011;73508;47.450;19.128;2024-03-06T08:22:52;25.83;;;12.35;;
75732;SDS011;73508;47.450;19.128;2024-03-06T08:25:18;23.60;;;12.00;;
75732;SDS011;73508;47.450;19.128;2024-03-06T08:27:43;22.90;;;11.20;;
75732;SDS011;73508;47.450;19.128;2024-03-06T08:30:09;23.40;;;12.20;;
75732;SDS011;73508;47.450;19.128;2024-03-06T08:32:35;20.70;;;11.18;;
75732;SDS011;73508;47.450;19.128;2024-03-06T08:35:05;21.23;;;11.43;;
75732;SDS011;73508;47.450;19.128;2024-03-06T08:37:36;20.58;;;11.57;;
75732;SDS011;73508;47.450;19.128;2024-03-06T08:40:01;22.87;;;11.50;;
75732;SDS011;73508;47.450;19.128;2024-03-06T08:42:27;22.73;;;11.93;;
75732;SDS011;73508;47.450;19.128;2024-03-06T08:44:53;25.23;;;10.70;;
75732;SDS011;73508;47.450;19.128;2024-03-06T08:47:18;19.40;;;11.57;;
75732;SDS011;73508;47.450;19.128;2024-03-06T08:49:43;21.37;;;10.70;;
75732;SDS011;73508;47.450;19.128;2024-03-06T08:52:09;19.65;;;10.63;;
75732;SDS011;73508;47.450;19.128;2024-03-06T08:54:35;21.47;;;10.63;;
75732;SDS011;73508;47.450;19.128;2024-03-06T08:57:00;19.95;;;10.77;;
75732;SDS011;73508;47.450;19.128;2024-03-06T08:59:27;19.37;;;10.93;;
75732;SDS011;73508;47.450;19.128;2024-03-06T09:01:54;18.40;;;10.40;;
75732;SDS011;73508;47.450;19.128;2024-03-06T09:04:20;18.98;;;9.93;;
75732;SDS011;73508;47.450;19.128;2024-03-06T09:06:45;18.67;;;10.93;;
75732;SDS011;73508;47.450;19.128;2024-03-06T09:09:11;20.07;;;10.73;;
75732;SDS011;73508;47.450;19.128;2024-03-06T09:11:39;22.58;;;11.35;;
75732;SDS011;73508;47.450;19.128;2024-03-06T09:14:05;17.70;;;10.23;;
75732;SDS011;73508;47.450;19.128;2024-03-06T09:16:30;20.53;;;11.10;;
75732;SDS011;73508;47.450;19.128;2024-03-06T09:18:56;22.93;;;10.70;;
75732;SDS011;73508;47.450;19.128;2024-03-06T09:21:21;21.30;;;11.17;;
75732;SDS011;73508;47.450;19.128;2024-03-06T09:23:47;20.07;;;10.73;;
75732;SDS011;73508;47.450;19.128;2024-03-06T09:26:16;20.02;;;10.50;;
75732;SDS011;73508;47.450;19.128;2024-03-06T09:28:41;18.73;;;9.70;;
75732;SDS011;73508;47.450;19.128;2024-03-06T09:31:07;19.77;;;9.57;;
75732;SDS011;73508;47.450;19.128;2024-03-06T09:33:32;18.20;;;9.53;;
75732;SDS011;73508;47.450;19.128;2024-03-06T09:35:58;18.27;;;10.17;;
75732;SDS011;73508;47.450;19.128;2024-03-06T09:38:24;16.17;;;10.07;;
75732;SDS011;73508;47.450;19.128;2024-03-06T09:40:49;19.97;;;10.70;;
75732;SDS011;73508;47.450;19.128;2024-03-06T09:43:16;20.60;;;11.80;;
75732;SDS011;73508;47.450;19.128;2024-03-06T09:45:42;17.47;;;9.93;;
75732;SDS011;73508;47.450;19.128;2024-03-06T09:48:11;18.08;;;9.77;;
75732;SDS011;73508;47.450;19.128;2024-03-06T09:50:36;17.73;;;10.63;;
75732;SDS011;73508;47.450;19.128;2024-03-06T09:53:06;18.45;;;9.65;;
75732;SDS011;73508;47.450;19.128;2024-03-06T09:55:33;15.25;;;9.65;;
75732;SDS011;73508;47.450;19.128;2024-03-06T09:58:00;13.27;;;8.52;;
75732;SDS011;73508;47.450;19.128;2024-03-06T10:00:28;15.30;;;8.60;;
75732;SDS011;73508;47.450;19.128;2024-03-06T10:02:57;17.50;;;8.27;;
75732;SDS011;73508;47.450;19.128;2024-03-06T10:05:26;18.52;;;8.85;;
75732;SDS011;73508;47.450;19.128;2024-03-06T10:07:52;19.77;;;9.00;;
75732;SDS011;73508;47.450;19.128;2024-03-06T10:10:21;20.48;;;10.10;;
75732;SDS011;73508;47.450;19.128;2024-03-06T10:12:47;15.45;;;8.32;;
75732;SDS011;73508;47.450;19.128;2024-03-06T10:15:13;15.27;;;8.87;;
75732;SDS011;73508;47.450;19.128;2024-03-06T10:17:39;14.00;;;8.13;;
75732;SDS011;73508;47.450;19.128;2024-03-06T10:20:23;15.50;;;8.37;;
75732;SDS011;73508;47.450;19.128;2024-03-06T10:22:52;16.30;;;7.65;;
75732;SDS011;73508;47.450;19.128;2024-03-06T10:25:19;12.82;;;8.45;;
75732;SDS011;73508;47.450;19.128;2024-03-06T10:28:09;18.37;;;8.23;;
75732;SDS011;73508;47.450;19.128;2024-03-06T10:30:34;14.70;;;7.55;;
75732;SDS011;73508;47.450;19.128;2024-03-06T10:33:04;13.57;;;8.88;;
75732;SDS011;73508;47.450;19.128;2024-03-06T10:35:31;16.12;;;8.68;;
75732;SDS011;73508;47.450;19.128;2024-03-06T10:38:03;13.65;;;8.20;;
75732;SDS011;73508;47.450;19.128;2024-03-06T10:40:33;14.60;;;8.40;;
75732;SDS011;73508;47.450;19.128;2024-03-06T10:43:00;13.85;;;8.23;;
75732;SDS011;73508;47.450;19.128;2024-03-06T10:48:07;14.50;;;7.05;;
75732;SDS011;73508;47.450;19.128;2024-03-06T10:50:34;15.38;;;7.80;;
75732;SDS011;73508;47.450;19.128;2024-03-06T10:53:00;13.80;;;7.70;;
75732;SDS011;73508;47.450;19.128;2024-03-06T10:55:26;11.98;;;6.78;;
75732;SDS011;73508;47.450;19.128;2024-03-06T10:57:53;16.42;;;7.78;;
75732;SDS011;73508;47.450;19.128;2024-03-06T11:00:19;13.65;;;7.82;;
75732;SDS011;73508;47.450;19.128;2024-03-06T11:02:48;13.23;;;6.70;;
75732;SDS011;73508;47.450;19.128;2024-03-06T11:05:14;12.63;;;7.30;;
75732;SDS011;73508;47.450;19.128;2024-03-06T11:07:39;12.77;;;6.93;;
75732;SDS011;73508;47.450;19.128;2024-03-06T11:10:05;18.20;;;8.30;;
75732;SDS011;73508;47.450;19.128;2024-03-06T11:12:33;14.80;;;7.77;;
75732;SDS011;73508;47.450;19.128;2024-03-06T11:15:00;18.90;;;7.50;;
75732;SDS011;73508;47.450;19.128;2024-03-06T11:17:28;14.80;;;8.27;;
75732;SDS011;73508;47.450;19.128;2024-03-06T11:33:20;13.30;;;7.80;;
75732;SDS011;73508;47.450;19.128;2024-03-06T11:41:24;14.82;;;7.93;;
75732;SDS011;73508;47.450;19.128;2024-03-06T11:43:51;15.02;;;7.90;;
75732;SDS011;73508;47.450;19.128;2024-03-06T11:46:18;15.23;;;7.97;;
75732;SDS011;73508;47.450;19.128;2024-03-06T11:48:44;13.07;;;8.27;;
75732;SDS011;73508;47.450;19.128;2024-03-06T11:51:16;17.17;;;8.57;;
75732;SDS011;73508;47.450;19.128;2024-03-06T11:53:42;12.97;;;7.40;;
75732;SDS011;73508;47.450;19.128;2024-03-06T11:56:09;16.35;;;9.10;;
75732;SDS011;73508;47.450;19.128;2024-03-06T11:58:35;13.43;;;7.83;;
75732;SDS011;73508;47.450;19.128;2024-03-06T12:01:03;14.60;;;8.38;;
75732;SDS011;73508;47.450;19.128;2024-03-06T12:03:29;15.47;;;7.57;;
75732;SDS011;73508;47.450;19.128;2024-03-06T12:05:54;14.00;;;7.80;;
75732;SDS011;73508;47.450;19.128;2024-03-06T12:08:20;16.63;;;8.53;;
75732;SDS011;73508;47.450;19.128;2024-03-06T12:10:45;17.53;;;9.03;;
75732;SDS011;73508;47.450;19.128;2024-03-06T12:13:12;16.55;;;8.45;;
75732;SDS011;73508;47.450;19.128;2024-03-06T12:15:38;16.05;;;8.63;;
75732;SDS011;73508;47.450;19.128;2024-03-06T12:18:04;15.47;;;8.40;;
75732;SDS011;73508;47.450;19.128;2024-03-06T12:20:30;20.00;;;9.05;;
75732;SDS011;73508;47.450;19.128;2024-03-06T12:22:56;25.83;;;9.32;;
75732;SDS011;73508;47.450;19.128;2024-03-06T12:25:25;16.37;;;9.10;;
75732;SDS011;73508;47.450;19.128;2024-03-06T12:27:51;16.13;;;9.10;;
75732;SDS011;73508;47.450;19.128;2024-03-06T12:30:19;15.20;;;9.10;;
75732;SDS011;73508;47.450;19.128;2024-03-06T12:35:29;16.15;;;9.43;;
75732;SDS011;73508;47.450;19.128;2024-03-06T12:37:55;17.08;;;9.55;;
75732;SDS011;73508;47.450;19.128;2024-03-06T12:40:20;17.53;;;9.67;;
75732;SDS011;73508;47.450;19.128;2024-03-06T12:42:46;16.93;;;9.13;;
75732;SDS011;73508;47.450;19.128;2024-03-06T12:45:12;14.65;;;9.23;;
75732;SDS011;73508;47.450;19.128;2024-03-06T12:47:40;16.30;;;8.60;;
75732;SDS011;73508;47.450;19.128;2024-03-06T12:50:06;17.12;;;9.27;;
75732;SDS011;73508;47.450;19.128;2024-03-06T12:52:33;15.50;;;9.02;;
75732;SDS011;73508;47.450;19.128;2024-03-06T12:55:01;18.30;;;9.35;;
75732;SDS011;73508;47.450;19.128;2024-03-06T12:57:26;16.03;;;9.13;;
75732;SDS011;73508;47.450;19.128;2024-03-06T12:59:54;14.60;;;8.63;;
75732;SDS011;73508;47.450;19.128;2024-03-06T13:02:20;16.40;;;9.20;;
75732;SDS011;73508;47.450;19.128;2024-03-06T13:04:45;17.40;;;9.37;;
75732;SDS011;73508;47.450;19.128;2024-03-06T13:07:10;15.77;;;9.37;;
75732;SDS011;73508;47.450;19.128;2024-03-06T13:09:36;16.43;;;9.63;;
75732;SDS011;73508;47.450;19.128;2024-03-06T13:12:01;18.25;;;9.23;;
75732;SDS011;73508;47.450;19.128;2024-03-06T13:14:27;16.50;;;9.40;;
75732;SDS011;73508;47.450;19.128;2024-03-06T13:16:52;17.77;;;9.30;;
75732;SDS011;73508;47.450;19.128;2024-03-06T13:19:17;18.43;;;9.70;;
75732;SDS011;73508;47.450;19.128;2024-03-06T13:21:42;17.87;;;9.93;;
75732;SDS011;73508;47.450;19.128;2024-03-06T13:24:08;15.67;;;8.83;;
75732;SDS011;73508;47.450;19.128;2024-03-06T13:26:33;17.77;;;10.23;;
75732;SDS011;73508;47.450;19.128;2024-03-06T13:28:58;17.47;;;9.70;;
75732;SDS011;73508;47.450;19.128;2024-03-06T13:31:24;16.05;;;9.82;;
75732;SDS011;73508;47.450;19.128;2024-03-06T13:33:50;15.10;;;9.10;;
75732;SDS011;73508;47.450;19.128;2024-03-06T13:36:15;16.00;;;9.40;;
75732;SDS011;73508;47.450;19.128;2024-03-06T13:38:40;17.60;;;8.70;;
75732;SDS011;73508;47.450;19.128;2024-03-06T13:41:06;15.30;;;9.55;;
75732;SDS011;73508;47.450;19.128;2024-03-06T13:43:31;18.27;;;8.83;;
75732;SDS011;73508;47.450;19.128;2024-03-06T13:45:57;18.77;;;9.18;;
75732;SDS011;73508;47.450;19.128;2024-03-06T13:48:23;14.87;;;7.93;;
75732;SDS011;73508;47.450;19.128;2024-03-06T13:50:48;17.37;;;9.30;;
75732;SDS011;73508;47.450;19.128;2024-03-06T13:53:14;14.40;;;8.53;;
75732;SDS011;73508;47.450;19.128;2024-03-06T13:55:39;16.30;;;9.48;;
75732;SDS011;73508;47.450;19.128;2024-03-06T13:58:05;14.17;;;8.00;;
75732;SDS011;73508;47.450;19.128;2024-03-06T14:00:32;10.52;;;4.95;;
75732;SDS011;73508;47.450;19.128;2024-03-06T14:02:57;8.53;;;3.20;;
75732;SDS011;73508;47.450;19.128;2024-03-06T14:05:22;8.67;;;3.53;;
75732;SDS011;73508;47.450;19.128;2024-03-06T14:07:51;8.25;;;2.83;;
75732;SDS011;73508;47.450;19.128;2024-03-06T14:10:16;8.60;;;3.00;;
75732;SDS011;73508;47.450;19.128;2024-03-06T14:12:44;6.87;;;2.80;;
75732;SDS011;73508;47.450;19.128;2024-03-06T14:15:09;8.07;;;3.15;;
75732;SDS011;73508;47.450;19.128;2024-03-06T14:17:38;6.43;;;3.20;;
75732;SDS011;73508;47.450;19.128;2024-03-06T14:20:03;6.30;;;3.37;;
75732;SDS011;73508;47.450;19.128;2024-03-06T14:22:29;7.50;;;3.90;;
75732;SDS011;73508;47.450;19.128;2024-03-06T14:24:55;5.37;;;3.10;;
75732;SDS011;73508;47.450;19.128;2024-03-06T14:27:20;6.50;;;3.33;;
75732;SDS011;73508;47.450;19.128;2024-03-06T14:29:45;7.37;;;3.13;;
75732;SDS011;73508;47.450;19.128;2024-03-06T14:32:11;7.35;;;2.55;;
75732;SDS011;73508;47.450;19.128;2024-03-06T14:34:36;5.83;;;2.70;;
75732;SDS011;73508;47.450;19.128;2024-03-06T14:37:01;6.03;;;2.70;;